sensor_id;sensor_type;location;lat;lon;timestamp;pressure;altitude;pressure_sealevel;temperature;humidity
8318;BME280;4196;48.926;8.964;2023-10-09T00:02:04;99680.44;;;9.92;100.00
8318;BME280;4196;48.926;8.964;2023-10-09T00:04:53;99678.69;;;9.88;100.00
8318;BME280;4196;48.926;8.964;2023-10-09T00:07:43;99683.91;;;9.91;100.00
8318;BME280;4196;48.926;8.964;2023-10-09T00:10:29;99676.09;;;9.88;100.00
8318;BME280;4196;48.926;8.964;2023-10-09T00:13:25;99686.47;;;9.91;100.00
8318;BME280;4196;48.926;8.964;2023-10-09T00:16:19;99673.50;;;9.88;100.00
8318;BME280;4196;48.926;8.964;2023-10-09T00:19:21;99675.19;;;9.85;100.00
8318;BME280;4196;48.926;8.964;2023-10-09T00:22:18;99671.75;;;9.84;100.00
8318;BME280;4196;48.926;8.964;2023-10-09T00:25:10;99656.16;;;9.78;100.00
8318;BME280;4196;48.926;8.964;2023-10-09T00:27:58;99668.31;;;9.85;100.00
8318;BME280;4196;48.926;8.964;2023-10-09T00:30:46;99670.88;;;9.85;100.00
8318;BME280;4196;48.926;8.964;2023-10-09T00:33:34;99673.41;;;9.79;100.00
8318;BME280;4196;48.926;8.964;2023-10-09T00:36:21;99660.41;;;9.70;100.00
8318;BME280;4196;48.926;8.964;2023-10-09T00:39:14;99669.00;;;9.69;100.00
8318;BME280;4196;48.926;8.964;2023-10-09T00:42:09;99657.78;;;9.65;100.00
8318;BME280;4196;48.926;8.964;2023-10-09T00:44:59;99662.03;;;9.63;100.00
8318;BME280;4196;48.926;8.964;2023-10-09T00:47:51;99650.84;;;9.63;100.00
8318;BME280;4196;48.926;8.964;2023-10-09T00:50:42;99648.22;;;9.58;100.00
8318;BME280;4196;48.926;8.964;2023-10-09T00:53:38;99662.94;;;9.67;100.00
8318;BME280;4196;48.926;8.964;2023-10-09T00:56:25;99640.41;;;9.57;100.00
8318;BME280;4196;48.926;8.964;2023-10-09T00:59:16;99646.63;;;9.74;100.00
8318;BME280;4196;48.926;8.964;2023-10-09T01:02:06;99656.16;;;9.78;100.00
8318;BME280;4196;48.926;8.964;2023-10-09T01:04:53;99657.06;;;9.80;100.00
8318;BME280;4196;48.926;8.964;2023-10-09T01:07:41;99646.75;;;9.83;100.00
8318;BME280;4196;48.926;8.964;2023-10-09T01:10:44;99642.53;;;9.95;100.00
8318;BME280;4196;48.926;8.964;2023-10-09T01:13:37;99643.38;;;9.92;100.00
8318;BME280;4196;48.926;8.964;2023-10-09T01:16:33;99632.06;;;9.82;100.00
8318;BME280;4196;48.926;8.964;2023-10-09T01:19:20;99637.16;;;9.75;100.00
8318;BME280;4196;48.926;8.964;2023-10-09T01:22:10;99637.13;;;9.70;100.00
8318;BME280;4196;48.926;8.964;2023-10-09T01:24:59;99641.44;;;9.71;100.00
8318;BME280;4196;48.926;8.964;2023-10-09T01:27:46;99634.50;;;9.67;100.00
8318;BME280;4196;48.926;8.964;2023-10-09T01:30:32;99625.09;;;9.72;100.00
8318;BME280;4196;48.926;8.964;2023-10-09T01:33:19;99629.41;;;9.73;100.00
8318;BME280;4196;48.926;8.964;2023-10-09T01:36:10;99624.22;;;9.75;100.00
8318;BME280;4196;48.926;8.964;2023-10-09T01:39:01;99632.03;;;9.76;100.00
8318;BME280;4196;48.926;8.964;2023-10-09T01:41:55;99632.00;;;9.73;100.00
8318;BME280;4196;48.926;8.964;2023-10-09T01:44:45;99606.94;;;9.69;100.00
8318;BME280;4196;48.926;8.964;2023-10-09T01:47:35;99605.28;;;9.76;100.00
8318;BME280;4196;48.926;8.964;2023-10-09T01:50:24;99606.19;;;9.82;100.00
8318;BME280;4196;48.926;8.964;2023-10-09T01:53:18;99599.28;;;9.81;100.00
8318;BME280;4196;48.926;8.964;2023-10-09T01:56:11;99605.34;;;9.80;100.00
8318;BME280;4196;48.926;8.964;2023-10-09T01:59:04;99600.19;;;9.86;100.00
8318;BME280;4196;48.926;8.964;2023-10-09T02:01:52;99602.78;;;9.86;100.00
8318;BME280;4196;48.926;8.964;2023-10-09T02:04:41;99576.91;;;9.85;100.00
8318;BME280;4196;48.926;8.964;2023-10-09T02:07:27;99582.97;;;9.88;100.00
8318;BME280;4196;48.926;8.964;2023-10-09T02:10:15;99569.16;;;9.85;100.00
8318;BME280;4196;48.926;8.964;2023-10-09T02:13:11;99583.09;;;10.02;100.00
8318;BME280;4196;48.926;8.964;2023-10-09T02:15:58;99589.16;;;10.03;100.00
8318;BME280;4196;48.926;8.964;2023-10-09T02:19:01;99589.19;;;10.12;100.00
8318;BME280;4196;48.926;8.964;2023-10-09T02:21:54;99593.53;;;10.14;100.00
8318;BME280;4196;48.926;8.964;2023-10-09T02:24:44;99594.44;;;10.16;100.00
8318;BME280;4196;48.926;8.964;2023-10-09T02:27:34;99596.13;;;10.13;100.00
8318;BME280;4196;48.926;8.964;2023-10-09T02:30:31;99597.84;;;10.14;100.00
8318;BME280;4196;48.926;8.964;2023-10-09T02:33:22;99595.22;;;10.12;100.00
8318;BME280;4196;48.926;8.964;2023-10-09T02:36:14;99599.53;;;10.10;100.00
8318;BME280;4196;48.926;8.964;2023-10-09T02:39:01;99601.25;;;10.08;100.00
8318;BME280;4196;48.926;8.964;2023-10-09T02:41:48;99596.16;;;10.19;100.00
8318;BME280;4196;48.926;8.964;2023-10-09T02:44:36;99590.06;;;10.11;100.00
8318;BME280;4196;48.926;8.964;2023-10-09T02:47:27;99567.47;;;9.90;100.00
8318;BME280;4196;48.926;8.964;2023-10-09T02:50:18;99589.09;;;10.00;100.00
8318;BME280;4196;48.926;8.964;2023-10-09T02:53:08;99590.91;;;10.07;100.00
8318;BME280;4196;48.926;8.964;2023-10-09T02:55:56;99590.81;;;9.95;100.00
8318;BME280;4196;48.926;8.964;2023-10-09T02:59:04;99589.84;;;9.86;100.00
8318;BME280;4196;48.926;8.964;2023-10-09T03:01:55;99578.63;;;9.84;100.00
8318;BME280;4196;48.926;8.964;2023-10-09T03:04:41;99569.16;;;9.85;100.00
8318;BME280;4196;48.926;8.964;2023-10-09T03:07:28;99567.47;;;9.87;100.00
8318;BME280;4196;48.926;8.964;2023-10-09T03:10:15;99480.88;;;9.40;100.00
8318;BME280;4196;48.926;8.964;2023-10-09T03:13:01;99560.56;;;9.87;100.00
8318;BME280;4196;48.926;8.964;2023-10-09T03:15:49;99559.72;;;9.91;100.00
8318;BME280;4196;48.926;8.964;2023-10-09T03:18:38;99562.34;;;9.98;100.00
8318;BME280;4196;48.926;8.964;2023-10-09T03:21:24;99559.72;;;9.91;100.00
8318;BME280;4196;48.926;8.964;2023-10-09T03:24:11;99560.63;;;9.97;100.00
8318;BME280;4196;48.926;8.964;2023-10-09T03:26:58;99554.59;;;9.95;100.00
8318;BME280;4196;48.926;8.964;2023-10-09T03:29:45;99558.00;;;9.93;100.00
8318;BME280;4196;48.926;8.964;2023-10-09T03:32:36;99555.44;;;9.95;100.00
8318;BME280;4196;48.926;8.964;2023-10-09T03:35:22;99555.47;;;10.01;100.00
8318;BME280;4196;48.926;8.964;2023-10-09T03:38:14;99552.03;;;9.99;100.00
8318;BME280;4196;48.926;8.964;2023-10-09T03:41:06;99533.88;;;9.98;100.00
8318;BME280;4196;48.926;8.964;2023-10-09T03:43:53;99560.75;;;10.10;100.00
8318;BME280;4196;48.926;8.964;2023-10-09T03:46:40;99561.59;;;10.11;100.00
8318;BME280;4196;48.926;8.964;2023-10-09T03:49:31;99561.53;;;10.02;100.00
8318;BME280;4196;48.926;8.964;2023-10-09T03:52:18;99564.09;;;10.00;100.00
8318;BME280;4196;48.926;8.964;2023-10-09T03:55:06;99556.31;;;9.96;100.00
8318;BME280;4196;48.926;8.964;2023-10-09T03:57:58;99562.34;;;9.98;100.00
8318;BME280;4196;48.926;8.964;2023-10-09T04:00:46;99558.00;;;9.90;100.00
8318;BME280;4196;48.926;8.964;2023-10-09T04:03:33;99555.34;;;9.80;100.00
8318;BME280;4196;48.926;8.964;2023-10-09T04:06:23;99562.19;;;9.76;100.00
8318;BME280;4196;48.926;8.964;2023-10-09T04:09:14;99554.44;;;9.76;100.00
8318;BME280;4196;48.926;8.964;2023-10-09T04:12:07;99557.94;;;9.84;100.00
8318;BME280;4196;48.926;8.964;2023-10-09T04:14:57;99563.13;;;9.84;100.00
8318;BME280;4196;48.926;8.964;2023-10-09T04:17:43;99558.69;;;9.70;100.00
8318;BME280;4196;48.926;8.964;2023-10-09T04:20:30;99571.75;;;9.86;100.00
8318;BME280;4196;48.926;8.964;2023-10-09T04:23:20;99556.22;;;9.86;100.00
8318;BME280;4196;48.926;8.964;2023-10-09T04:26:21;99578.63;;;9.84;100.00
8318;BME280;4196;48.926;8.964;2023-10-09T04:29:07;99569.06;;;9.74;100.00
8318;BME280;4196;48.926;8.964;2023-10-09T04:31:57;99564.94;;;9.98;100.00
8318;BME280;4196;48.926;8.964;2023-10-09T04:34:46;99561.53;;;10.02;100.00
8318;BME280;4196;48.926;8.964;2023-10-09T04:37:38;99570.16;;;10.04;100.00
8318;BME280;4196;48.926;8.964;2023-10-09T04:40:25;99558.06;;;9.98;100.00
8318;BME280;4196;48.926;8.964;2023-10-09T04:43:27;99557.25;;;10.07;100.00
8318;BME280;4196;48.926;8.964;2023-10-09T04:46:14;99558.94;;;9.99;100.00
8318;BME280;4196;48.926;8.964;2023-10-09T04:49:10;99561.47;;;9.94;100.00
8318;BME280;4196;48.926;8.964;2023-10-09T04:52:18;99558.00;;;9.90;100.00
8318;BME280;4196;48.926;8.964;2023-10-09T04:55:17;99557.19;;;9.95;100.00
8318;BME280;4196;48.926;8.964;2023-10-09T04:58:06;99541.69;;;9.99;100.00
8318;BME280;4196;48.926;8.964;2023-10-09T05:00:59;99558.06;;;10.00;100.00
8318;BME280;4196;48.926;8.964;2023-10-09T05:03:45;99552.00;;;9.96;100.00
8318;BME280;4196;48.926;8.964;2023-10-09T05:06:32;99565.84;;;10.04;100.00
8318;BME280;4196;48.926;8.964;2023-10-09T05:09:41;99554.69;;;10.10;100.00
8318;BME280;4196;48.926;8.964;2023-10-09T05:12:41;99554.72;;;10.14;100.00
8318;BME280;4196;48.926;8.964;2023-10-09T05:15:33;99558.19;;;10.16;100.00
8318;BME280;4196;48.926;8.964;2023-10-09T05:18:21;99557.19;;;10.01;100.00
8318;BME280;4196;48.926;8.964;2023-10-09T05:21:13;99568.50;;;10.09;100.00
8318;BME280;4196;48.926;8.964;2023-10-09T05:24:18;99559.81;;;10.04;100.00
8318;BME280;4196;48.926;8.964;2023-10-09T05:27:06;99558.09;;;10.03;100.00
8318;BME280;4196;48.926;8.964;2023-10-09T05:30:05;99564.03;;;9.94;100.00
8318;BME280;4196;48.926;8.964;2023-10-09T05:33:11;99571.03;;;10.03;100.00
8318;BME280;4196;48.926;8.964;2023-10-09T05:36:14;99556.38;;;10.05;100.00
8318;BME280;4196;48.926;8.964;2023-10-09T05:39:18;99570.16;;;10.04;100.00
8318;BME280;4196;48.926;8.964;2023-10-09T05:42:08;99565.00;;;10.04;100.00
8318;BME280;4196;48.926;8.964;2023-10-09T05:45:05;99573.53;;;9.93;100.00
8318;BME280;4196;48.926;8.964;2023-10-09T05:48:04;99570.06;;;9.87;100.00
8318;BME280;4196;48.926;8.964;2023-10-09T05:51:11;99561.47;;;9.92;100.00
8318;BME280;4196;48.926;8.964;2023-10-09T05:54:27;99550.31;;;9.98;100.00
8318;BME280;4196;48.926;8.964;2023-10-09T05:57:32;99565.94;;;10.13;100.00
8318;BME280;4196;48.926;8.964;2023-10-09T06:00:37;99574.50;;;10.08;100.00
8318;BME280;4196;48.926;8.964;2023-10-09T06:03:42;99584.03;;;10.12;100.00
8318;BME280;4196;48.926;8.964;2023-10-09T06:06:35;99587.47;;;10.11;100.00
8318;BME280;4196;48.926;8.964;2023-10-09T06:09:40;99578.88;;;10.15;100.00
8318;BME280;4196;48.926;8.964;2023-10-09T06:12:37;99582.44;;;10.26;100.00
8318;BME280;4196;48.926;8.964;2023-10-09T06:15:36;99585.09;;;10.35;100.00
8318;BME280;4196;48.926;8.964;2023-10-09T06:18:32;99586.88;;;10.44;100.00
8318;BME280;4196;48.926;8.964;2023-10-09T06:21:21;99579.09;;;10.44;100.00
8318;BME280;4196;48.926;8.964;2023-10-09T06:24:45;99588.56;;;10.40;100.00
8318;BME280;4196;48.926;8.964;2023-10-09T06:27:41;99596.38;;;10.44;100.00
8318;BME280;4196;48.926;8.964;2023-10-09T06:30:28;99596.38;;;10.44;100.00
8318;BME280;4196;48.926;8.964;2023-10-09T06:33:15;99584.25;;;10.39;100.00
8318;BME280;4196;48.926;8.964;2023-10-09T06:36:16;99606.75;;;10.48;100.00
8318;BME280;4196;48.926;8.964;2023-10-09T06:39:04;99589.50;;;10.46;100.00
8318;BME280;4196;48.926;8.964;2023-10-09T06:42:30;99599.91;;;10.53;100.00
8318;BME280;4196;48.926;8.964;2023-10-09T06:45:17;99609.44;;;10.67;100.00
8318;BME280;4196;48.926;8.964;2023-10-09T06:48:04;99615.53;;;10.75;100.00
8318;BME280;4196;48.926;8.964;2023-10-09T06:50:57;99607.00;;;10.86;100.00
8318;BME280;4196;48.926;8.964;2023-10-09T06:53:55;99611.34;;;11.04;100.00
8318;BME280;4196;48.926;8.964;2023-10-09T06:56:42;99601.88;;;11.11;100.00
8318;BME280;4196;48.926;8.964;2023-10-09T06:59:38;99603.66;;;11.23;100.00
8318;BME280;4196;48.926;8.964;2023-10-09T07:02:50;99593.28;;;11.18;100.00
8318;BME280;4196;48.926;8.964;2023-10-09T07:05:40;99601.94;;;11.20;100.00
8318;BME280;4196;48.926;8.964;2023-10-09T07:09:02;99600.25;;;11.34;100.00
8318;BME280;4196;48.926;8.964;2023-10-09T07:11:52;99599.38;;;11.28;100.00
8318;BME280;4196;48.926;8.964;2023-10-09T07:14:38;99605.44;;;11.37;100.00
8318;BME280;4196;48.926;8.964;2023-10-09T07:17:25;99603.72;;;11.36;100.00
8318;BME280;4196;48.926;8.964;2023-10-09T07:20:33;99595.06;;;11.31;100.00
8318;BME280;4196;48.926;8.964;2023-10-09T07:23:23;99595.94;;;11.40;100.00
8318;BME280;4196;48.926;8.964;2023-10-09T07:26:09;99601.13;;;11.38;100.00
8318;BME280;4196;48.926;8.964;2023-10-09T07:29:05;99600.28;;;11.51;100.00
8318;BME280;4196;48.926;8.964;2023-10-09T07:32:02;99600.31;;;11.65;100.00
8318;BME280;4196;48.926;8.964;2023-10-09T07:34:59;99604.66;;;11.65;100.00
8318;BME280;4196;48.926;8.964;2023-10-09T07:37:46;99602.91;;;11.70;100.00
8318;BME280;4196;48.926;8.964;2023-10-09T07:40:37;99599.50;;;11.78;100.00
8318;BME280;4196;48.926;8.964;2023-10-09T07:44:00;99587.41;;;11.99;100.00
8318;BME280;4196;48.926;8.964;2023-10-09T07:47:05;99591.75;;;12.15;100.00
8318;BME280;4196;48.926;8.964;2023-10-09T07:50:04;99589.16;;;12.23;100.00
8318;BME280;4196;48.926;8.964;2023-10-09T07:52:51;99516.50;;;11.86;100.00
8318;BME280;4196;48.926;8.964;2023-10-09T07:55:57;99593.44;;;12.44;100.00
8318;BME280;4196;48.926;8.964;2023-10-09T07:58:53;99579.59;;;12.40;100.00
8318;BME280;4196;48.926;8.964;2023-10-09T08:01:41;99568.34;;;12.40;100.00
8318;BME280;4196;48.926;8.964;2023-10-09T08:04:49;99600.34;;;12.57;100.00
8318;BME280;4196;48.926;8.964;2023-10-09T08:07:36;99607.25;;;12.67;100.00
8318;BME280;4196;48.926;8.964;2023-10-09T08:10:42;99599.44;;;12.75;100.00
8318;BME280;4196;48.926;8.964;2023-10-09T08:13:48;99583.81;;;12.76;100.00
8318;BME280;4196;48.926;8.964;2023-10-09T08:16:49;99608.88;;;13.05;100.00
8318;BME280;4196;48.926;8.964;2023-10-09T08:19:38;99604.50;;;13.10;100.00
8318;BME280;4196;48.926;8.964;2023-10-09T08:22:39;99588.88;;;13.13;100.00
8318;BME280;4196;48.926;8.964;2023-10-09T08:25:30;99612.22;;;13.35;100.00
8318;BME280;4196;48.926;8.964;2023-10-09T08:28:19;99611.34;;;13.36;100.00
8318;BME280;4196;48.926;8.964;2023-10-09T08:31:16;99616.53;;;13.45;100.00
8318;BME280;4196;48.926;8.964;2023-10-09T08:34:21;99613.91;;;13.45;100.00
8318;BME280;4196;48.926;8.964;2023-10-09T08:37:13;99618.22;;;13.49;100.00
8318;BME280;4196;48.926;8.964;2023-10-09T08:40:00;99616.44;;;13.57;100.00
8318;BME280;4196;48.926;8.964;2023-10-09T08:42:52;99612.06;;;13.65;100.00
8318;BME280;4196;48.926;8.964;2023-10-09T08:45:42;99611.16;;;13.69;100.00
8318;BME280;4196;48.926;8.964;2023-10-09T08:48:31;99598.19;;;13.63;100.00
8318;BME280;4196;48.926;8.964;2023-10-09T08:51:19;99612.81;;;13.80;100.00
8318;BME280;4196;48.926;8.964;2023-10-09T08:54:07;99596.38;;;13.74;100.00
8318;BME280;4196;48.926;8.964;2023-10-09T08:56:58;99617.06;;;13.94;100.00
8318;BME280;4196;48.926;8.964;2023-10-09T08:59:45;99610.09;;;13.98;100.00
8318;BME280;4196;48.926;8.964;2023-10-09T09:02:33;99628.19;;;14.16;100.00
8318;BME280;4196;48.926;8.964;2023-10-09T09:05:21;99635.03;;;14.30;100.00
8318;BME280;4196;48.926;8.964;2023-10-09T09:08:24;99635.88;;;14.30;100.00
8318;BME280;4196;48.926;8.964;2023-10-09T09:11:16;99643.53;;;14.48;100.00
8318;BME280;4196;48.926;8.964;2023-10-09T09:14:05;99648.59;;;14.70;100.00
8318;BME280;4196;48.926;8.964;2023-10-09T09:16:53;99644.22;;;14.73;100.00
8318;BME280;4196;48.926;8.964;2023-10-09T09:19:40;99641.50;;;14.84;100.00
8318;BME280;4196;48.926;8.964;2023-10-09T09:22:35;99647.25;;;15.14;100.00
8318;BME280;4196;48.926;8.964;2023-10-09T09:25:43;99638.44;;;15.22;100.00
8318;BME280;4196;48.926;8.964;2023-10-09T09:28:34;99635.63;;;15.38;100.00
8318;BME280;4196;48.926;8.964;2023-10-09T09:31:25;99633.75;;;15.49;100.00
8318;BME280;4196;48.926;8.964;2023-10-09T09:34:12;99644.78;;;15.73;100.00
8318;BME280;4196;48.926;8.964;2023-10-09T09:37:06;99640.97;;;15.95;99.40
8318;BME280;4196;48.926;8.964;2023-10-09T09:40:05;99634.50;;;16.17;93.34
8318;BME280;4196;48.926;8.964;2023-10-09T09:43:25;99635.09;;;16.35;93.25
8318;BME280;4196;48.926;8.964;2023-10-09T09:46:35;99636.47;;;16.57;92.10
8318;BME280;4196;48.926;8.964;2023-10-09T09:49:37;99633.56;;;16.71;91.59
8318;BME280;4196;48.926;8.964;2023-10-09T09:52:46;99629.69;;;16.95;92.95
8318;BME280;4196;48.926;8.964;2023-10-09T09:55:59;99625.78;;;17.16;92.72
8318;BME280;4196;48.926;8.964;2023-10-09T09:59:04;99628.88;;;17.35;94.36
8318;BME280;4196;48.926;8.964;2023-10-09T10:02:32;99630.88;;;17.62;94.87
8318;BME280;4196;48.926;8.964;2023-10-09T10:05:43;99628.84;;;17.77;93.05
8318;BME280;4196;48.926;8.964;2023-10-09T10:08:48;99623.25;;;17.94;89.16
8318;BME280;4196;48.926;8.964;2023-10-09T10:11:49;99636.88;;;18.08;91.04
8318;BME280;4196;48.926;8.964;2023-10-09T10:15:01;99572.09;;;17.77;89.56
8318;BME280;4196;48.926;8.964;2023-10-09T10:18:08;99632.19;;;18.21;91.03
8318;BME280;4196;48.926;8.964;2023-10-09T10:21:14;99632.78;;;18.32;91.11
8318;BME280;4196;48.926;8.964;2023-10-09T10:27:34;99615.88;;;18.44;95.73
8318;BME280;4196;48.926;8.964;2023-10-09T10:30:46;99594.59;;;18.56;96.42
8318;BME280;4196;48.926;8.964;2023-10-09T10:37:10;99619.25;;;18.83;97.97
8318;BME280;4196;48.926;8.964;2023-10-09T10:40:09;99617.34;;;18.88;99.14
8318;BME280;4196;48.926;8.964;2023-10-09T10:43:35;99610.94;;;18.98;95.85
8318;BME280;4196;48.926;8.964;2023-10-09T10:46:41;99605.88;;;19.22;94.87
8318;BME280;4196;48.926;8.964;2023-10-09T10:49:35;99609.50;;;19.47;93.69
8318;BME280;4196;48.926;8.964;2023-10-09T10:52:40;99611.31;;;19.75;86.92
8318;BME280;4196;48.926;8.964;2023-10-09T10:55:40;99610.25;;;20.09;81.51
8318;BME280;4196;48.926;8.964;2023-10-09T10:58:41;99614.91;;;20.27;81.02
8318;BME280;4196;48.926;8.964;2023-10-09T11:01:54;99618.25;;;20.59;73.14
8318;BME280;4196;48.926;8.964;2023-10-09T11:05:12;99618.69;;;20.95;67.41
8318;BME280;4196;48.926;8.964;2023-10-09T11:08:28;99616.84;;;21.22;63.57
8318;BME280;4196;48.926;8.964;2023-10-09T11:11:38;99612.75;;;21.38;57.87
8318;BME280;4196;48.926;8.964;2023-10-09T11:14:46;99612.84;;;21.35;57.54
8318;BME280;4196;48.926;8.964;2023-10-09T11:18:07;99607.91;;;21.26;59.01
8318;BME280;4196;48.926;8.964;2023-10-09T11:21:29;99603.69;;;21.22;56.83
8318;BME280;4196;48.926;8.964;2023-10-09T11:24:48;99600.13;;;20.99;59.47
8318;BME280;4196;48.926;8.964;2023-10-09T11:28:22;99572.06;;;20.98;57.39
8318;BME280;4196;48.926;8.964;2023-10-09T11:31:36;99579.41;;;21.14;55.08
8318;BME280;4196;48.926;8.964;2023-10-09T11:34:47;99561.53;;;20.98;55.22
8318;BME280;4196;48.926;8.964;2023-10-09T11:37:55;99582.56;;;21.00;55.68
8318;BME280;4196;48.926;8.964;2023-10-09T11:40:48;99582.66;;;20.97;57.71
8318;BME280;4196;48.926;8.964;2023-10-09T11:43:55;99590.28;;;21.05;56.69
8318;BME280;4196;48.926;8.964;2023-10-09T11:46:59;99578.78;;;21.07;55.95
8318;BME280;4196;48.926;8.964;2023-10-09T11:50:15;99572.00;;;21.00;58.26
8318;BME280;4196;48.926;8.964;2023-10-09T11:53:10;99571.50;;;21.14;55.74
8318;BME280;4196;48.926;8.964;2023-10-09T11:56:21;99558.50;;;21.09;55.82
8318;BME280;4196;48.926;8.964;2023-10-09T11:59:15;99559.34;;;21.10;55.13
8318;BME280;4196;48.926;8.964;2023-10-09T12:02:21;99563.44;;;21.18;55.21
8318;BME280;4196;48.926;8.964;2023-10-09T12:05:21;99555.47;;;21.43;51.01
8318;BME280;4196;48.926;8.964;2023-10-09T12:08:21;99553.19;;;21.56;53.62
8318;BME280;4196;48.926;8.964;2023-10-09T12:11:33;99548.56;;;21.63;51.01
8318;BME280;4196;48.926;8.964;2023-10-09T12:14:52;99549.41;;;21.85;51.06
8318;BME280;4196;48.926;8.964;2023-10-09T12:17:54;99553.81;;;21.85;53.66
8318;BME280;4196;48.926;8.964;2023-10-09T12:20:54;99542.81;;;21.95;49.95
8318;BME280;4196;48.926;8.964;2023-10-09T12:24:02;99529.03;;;21.89;51.53
8318;BME280;4196;48.926;8.964;2023-10-09T12:27:15;99542.75;;;21.97;51.45
8318;BME280;4196;48.926;8.964;2023-10-09T12:30:19;99554.88;;;22.23;48.08
8318;BME280;4196;48.926;8.964;2023-10-09T12:33:28;99542.94;;;22.35;49.67
8318;BME280;4196;48.926;8.964;2023-10-09T12:36:22;99533.44;;;22.51;49.03
8318;BME280;4196;48.926;8.964;2023-10-09T12:39:21;99543.41;;;22.45;50.27
8318;BME280;4196;48.926;8.964;2023-10-09T12:42:23;99536.69;;;22.37;50.51
8318;BME280;4196;48.926;8.964;2023-10-09T12:45:22;99535.50;;;22.24;51.30
8318;BME280;4196;48.926;8.964;2023-10-09T12:48:18;99530.34;;;22.21;54.14
8318;BME280;4196;48.926;8.964;2023-10-09T12:51:20;99526.78;;;22.22;55.35
8318;BME280;4196;48.926;8.964;2023-10-09T12:54:24;99509.59;;;22.12;57.95
8318;BME280;4196;48.926;8.964;2023-10-09T12:57:29;99500.41;;;22.22;58.51
8318;BME280;4196;48.926;8.964;2023-10-09T13:00:28;99509.44;;;22.37;59.43
8318;BME280;4196;48.926;8.964;2023-10-09T13:03:26;99492.41;;;22.44;59.56
8318;BME280;4196;48.926;8.964;2023-10-09T13:06:21;99488.63;;;22.50;54.78
8318;BME280;4196;48.926;8.964;2023-10-09T13:09:20;99482.97;;;22.78;50.80
8318;BME280;4196;48.926;8.964;2023-10-09T13:15:54;99502.44;;;22.96;55.59
8318;BME280;4196;48.926;8.964;2023-10-09T13:18:53;99501.75;;;22.90;54.08
8318;BME280;4196;48.926;8.964;2023-10-09T13:21:49;99497.72;;;23.02;47.39
8318;BME280;4196;48.926;8.964;2023-10-09T13:24:48;99499.91;;;23.30;47.10
8318;BME280;4196;48.926;8.964;2023-10-09T13:27:42;99495.38;;;23.51;44.83
8318;BME280;4196;48.926;8.964;2023-10-09T13:30:44;99493.69;;;23.86;43.66
8318;BME280;4196;48.926;8.964;2023-10-09T13:33:43;99488.44;;;24.02;41.65
8318;BME280;4196;48.926;8.964;2023-10-09T13:36:36;99485.88;;;24.18;40.03
8318;BME280;4196;48.926;8.964;2023-10-09T13:39:30;99474.66;;;24.30;39.83
8318;BME280;4196;48.926;8.964;2023-10-09T13:42:29;99487.41;;;24.57;37.09
8318;BME280;4196;48.926;8.964;2023-10-09T13:45:28;99477.09;;;24.68;37.45
8318;BME280;4196;48.926;8.964;2023-10-09T13:48:24;99471.91;;;24.82;36.10
8318;BME280;4196;48.926;8.964;2023-10-09T13:51:22;99467.63;;;24.96;34.94
8318;BME280;4196;48.926;8.964;2023-10-09T13:54:18;99470.44;;;24.93;34.54
8318;BME280;4196;48.926;8.964;2023-10-09T13:57:20;99458.88;;;24.78;36.45
8318;BME280;4196;48.926;8.964;2023-10-09T14:00:20;99461.97;;;24.70;35.02
8318;BME280;4196;48.926;8.964;2023-10-09T14:03:27;99467.66;;;24.63;33.65
8318;BME280;4196;48.926;8.964;2023-10-09T14:06:17;99466.38;;;24.37;33.95
8318;BME280;4196;48.926;8.964;2023-10-09T14:09:22;99475.13;;;24.21;35.15
8318;BME280;4196;48.926;8.964;2023-10-09T14:12:30;99463.66;;;24.05;36.38
8318;BME280;4196;48.926;8.964;2023-10-09T14:15:27;99456.16;;;23.96;34.60
8318;BME280;4196;48.926;8.964;2023-10-09T14:18:26;99458.81;;;23.96;34.66
8318;BME280;4196;48.926;8.964;2023-10-09T14:21:31;99448.88;;;23.83;35.98
8318;BME280;4196;48.926;8.964;2023-10-09T14:24:21;99451.50;;;23.83;35.62
8318;BME280;4196;48.926;8.964;2023-10-09T14:27:27;99435.59;;;23.66;36.98
8318;BME280;4196;48.926;8.964;2023-10-09T14:30:28;99449.47;;;23.71;36.80
8318;BME280;4196;48.926;8.964;2023-10-09T14:33:27;99449.28;;;23.57;39.71
8318;BME280;4196;48.926;8.964;2023-10-09T14:36:31;99450.38;;;23.53;37.50
8318;BME280;4196;48.926;8.964;2023-10-09T14:39:36;99452.47;;;23.46;38.78
8318;BME280;4196;48.926;8.964;2023-10-09T14:42:43;99450.66;;;23.47;37.14
8318;BME280;4196;48.926;8.964;2023-10-09T14:45:58;99451.97;;;23.38;37.98
8318;BME280;4196;48.926;8.964;2023-10-09T14:49:00;99457.34;;;23.36;37.36
8318;BME280;4196;48.926;8.964;2023-10-09T14:51:59;99458.13;;;23.38;37.15
8318;BME280;4196;48.926;8.964;2023-10-09T14:54:57;99459.56;;;23.27;37.74
8318;BME280;4196;48.926;8.964;2023-10-09T14:57:59;99456.50;;;23.17;38.85
8318;BME280;4196;48.926;8.964;2023-10-09T15:01:10;99454.31;;;23.08;40.48
8318;BME280;4196;48.926;8.964;2023-10-09T15:04:05;99444.19;;;22.99;40.64
8318;BME280;4196;48.926;8.964;2023-10-09T15:07:10;99436.72;;;22.88;41.54
8318;BME280;4196;48.926;8.964;2023-10-09T15:10:26;99431.09;;;22.77;41.61
8318;BME280;4196;48.926;8.964;2023-10-09T15:13:22;99428.59;;;22.55;42.81
8318;BME280;4196;48.926;8.964;2023-10-09T15:16:16;99422.66;;;22.50;42.28
8318;BME280;4196;48.926;8.964;2023-10-09T15:19:13;99441.72;;;22.56;42.31
8318;BME280;4196;48.926;8.964;2023-10-09T15:22:24;99439.41;;;22.49;44.24
8318;BME280;4196;48.926;8.964;2023-10-09T15:25:25;99434.72;;;22.36;46.02
8318;BME280;4196;48.926;8.964;2023-10-09T15:28:21;99441.94;;;22.31;43.91
8318;BME280;4196;48.926;8.964;2023-10-09T15:31:25;99424.38;;;22.32;42.58
8318;BME280;4196;48.926;8.964;2023-10-09T15:34:21;99426.78;;;22.36;43.36
8318;BME280;4196;48.926;8.964;2023-10-09T15:37:19;99432.13;;;22.35;42.95
8318;BME280;4196;48.926;8.964;2023-10-09T15:40:11;99438.81;;;22.23;45.27
8318;BME280;4196;48.926;8.964;2023-10-09T15:43:14;99442.75;;;22.13;46.62
8318;BME280;4196;48.926;8.964;2023-10-09T15:46:16;99448.69;;;21.98;46.88
8318;BME280;4196;48.926;8.964;2023-10-09T15:49:08;99451.94;;;21.84;47.55
8318;BME280;4196;48.926;8.964;2023-10-09T15:52:13;99436.53;;;21.53;49.16
8318;BME280;4196;48.926;8.964;2023-10-09T15:55:20;99461.41;;;21.45;49.38
8318;BME280;4196;48.926;8.964;2023-10-09T15:58:19;99467.25;;;21.30;51.85
8318;BME280;4196;48.926;8.964;2023-10-09T16:01:11;99458.97;;;21.41;47.34
8318;BME280;4196;48.926;8.964;2023-10-09T16:04:12;99446.06;;;21.11;49.62
8318;BME280;4196;48.926;8.964;2023-10-09T16:07:08;99459.66;;;21.01;51.60
8318;BME280;4196;48.926;8.964;2023-10-09T16:10:10;99453.38;;;20.81;52.86